createdAt,value
2022-11-02T00:01:09.666Z,95975.28
2022-11-02T00:03:37.570Z,95984.19
2022-11-02T00:06:05.564Z,95973.06
2022-11-02T00:08:33.387Z,95969.72
2022-11-02T00:11:01.231Z,95978.13
2022-11-02T00:13:29.094Z,95975.09
2022-11-02T00:15:58.518Z,95978.44
2022-11-02T00:18:26.378Z,95977.19
2022-11-02T00:20:54.217Z,95972.72
2022-11-02T00:23:22.066Z,95973.19
2022-11-02T00:25:52.958Z,95968.88
2022-11-02T00:28:21.090Z,95934.56
2022-11-02T00:30:49.052Z,95970.78
2022-11-02T00:33:18.411Z,95966.78
2022-11-02T00:35:46.814Z,95976.28
2022-11-02T00:38:14.918Z,95974.69
2022-11-02T00:40:42.806Z,95962.63
2022-11-02T00:43:10.625Z,95959.59
2022-11-02T00:45:38.745Z,95963.91
2022-11-02T00:48:07.655Z,95940.72
2022-11-02T00:50:37.047Z,95959.47
2022-11-02T00:53:04.886Z,95957.75
2022-11-02T00:55:32.710Z,95964.44
2022-11-02T00:58:00.716Z,95961.13
2022-11-02T01:00:28.711Z,95954.88
2022-11-02T01:02:56.537Z,95960.41
2022-11-02T01:05:24.390Z,95956.63
2022-11-02T01:07:53.875Z,95964.56
2022-11-02T01:10:21.993Z,95963.16
2022-11-02T01:12:49.930Z,95971.44
2022-11-02T01:15:17.935Z,95960.97
2022-11-02T01:17:45.765Z,95962.09
2022-11-02T01:20:14.274Z,95964.78
2022-11-02T01:22:42.113Z,95960.34
2022-11-02T01:25:11.489Z,95959.69
2022-11-02T01:27:39.361Z,95963.16
2022-11-02T01:30:08.255Z,95966.97
2022-11-02T01:32:36.130Z,95945.97
2022-11-02T01:35:05.604Z,95958.38
2022-11-02T01:37:33.451Z,95954.66
2022-11-02T01:40:01.478Z,95947.09
2022-11-02T01:42:30.675Z,95952.84
2022-11-02T01:44:58.503Z,95947.59
2022-11-02T01:47:31.325Z,95950.47
2022-11-02T01:50:04.371Z,95941.13
2022-11-02T01:52:35.680Z,95900.94
2022-11-02T01:55:08.137Z,95955.25
2022-11-02T01:57:39.156Z,95877.63
2022-11-02T02:00:09.955Z,95946.34
2022-11-02T02:02:43.862Z,95942.00
2022-11-02T02:05:14.723Z,95942.47
2022-11-02T02:07:43.049Z,95939.25
2022-11-02T02:10:11.265Z,95942.16
2022-11-02T02:12:43.734Z,95939.16
2022-11-02T02:15:13.122Z,95918.63
2022-11-02T02:17:48.149Z,95796.63
2022-11-02T02:20:27.355Z,95938.53
2022-11-02T02:23:19.518Z,95941.84
2022-11-02T02:26:05.469Z,95941.25
2022-11-02T02:28:42.568Z,95940.88
2022-11-02T02:31:15.819Z,95938.19
2022-11-02T02:33:50.601Z,95946.50
2022-11-02T02:36:22.754Z,95944.63
2022-11-02T02:38:59.866Z,95945.41
2022-11-02T02:41:39.266Z,95944.69
2022-11-02T02:44:12.063Z,95943.69
2022-11-02T02:46:46.629Z,95873.50
2022-11-02T02:49:19.233Z,95944.81
2022-11-02T02:51:48.409Z,95944.81
2022-11-02T02:54:20.567Z,95944.06
2022-11-02T02:56:53.806Z,95941.69
2022-11-02T02:59:27.100Z,95944.06
2022-11-02T03:01:57.140Z,95935.44
2022-11-02T03:04:25.771Z,95937.50
2022-11-02T03:06:58.140Z,95915.22
2022-11-02T03:09:33.542Z,95948.41
2022-11-02T03:12:14.166Z,95946.19
2022-11-02T03:14:55.035Z,95949.19
2022-11-02T03:17:31.710Z,95952.56
2022-11-02T03:20:09.010Z,95946.81
2022-11-02T03:22:48.362Z,95939.09
2022-11-02T03:25:20.119Z,95943.09
2022-11-02T03:27:54.325Z,95949.94
2022-11-02T03:30:25.581Z,95954.06
2022-11-02T03:33:02.288Z,95947.53
2022-11-02T03:35:35.703Z,95949.72
2022-11-02T03:38:07.583Z,95954.13
2022-11-02T03:40:40.418Z,95954.34
2022-11-02T03:43:08.673Z,95957.03
2022-11-02T03:45:42.091Z,95939.41
2022-11-02T03:48:13.834Z,95948.06
2022-11-02T03:50:47.427Z,95951.72
2022-11-02T03:53:22.260Z,95950.41
2022-11-02T03:55:54.053Z,95900.09
2022-11-02T03:58:21.913Z,95942.28
2022-11-02T04:00:54.465Z,95944.63
2022-11-02T04:03:25.084Z,95948.50
2022-11-02T04:05:53.026Z,95926.28
2022-11-02T04:08:29.330Z,95936.56
2022-11-02T04:11:14.801Z,95876.09
2022-11-02T04:14:00.188Z,95938.44
2022-11-02T04:16:29.404Z,95940.09
2022-11-02T04:19:14.873Z,95947.25
2022-11-02T04:22:03.093Z,95946.88
2022-11-02T04:24:48.491Z,95936.09
2022-11-02T04:27:20.513Z,95949.69
2022-11-02T04:29:48.669Z,95947.25
2022-11-02T04:32:38.833Z,95947.34
2022-11-02T04:35:07.046Z,95946.47
2022-11-02T04:37:57.177Z,95918.09
2022-11-02T04:40:25.157Z,95947.59
2022-11-02T04:42:52.990Z,95946.00
2022-11-02T04:45:20.838Z,95948.16
2022-11-02T04:47:50.038Z,95953.78
2022-11-02T04:50:18.055Z,95949.94
2022-11-02T04:52:45.932Z,95953.28
2022-11-02T04:55:13.787Z,95954.81
2022-11-02T04:57:46.410Z,95956.75
2022-11-02T05:00:15.634Z,95947.50
2022-11-02T05:02:43.800Z,95939.03
2022-11-02T05:05:13.117Z,95912.59
2022-11-02T05:07:41.134Z,95926.75
2022-11-02T05:10:10.285Z,95958.41
2022-11-02T05:12:38.246Z,95962.78
2022-11-02T05:15:07.102Z,95952.41
2022-11-02T05:17:34.941Z,95960.19
2022-11-02T05:20:03.946Z,95958.06
2022-11-02T05:22:33.294Z,95950.47
2022-11-02T05:25:01.131Z,95964.81
2022-11-02T05:27:28.949Z,95954.06
2022-11-02T05:29:56.755Z,95981.63
2022-11-02T05:32:24.624Z,95988.78
2022-11-02T05:34:52.508Z,95983.31
2022-11-02T05:37:20.351Z,95985.03
2022-11-02T05:39:50.619Z,95990.47
2022-11-02T05:42:18.722Z,95928.03
2022-11-02T05:44:46.573Z,95986.47
2022-11-02T05:47:14.405Z,96001.78
2022-11-02T05:49:42.422Z,95991.97
2022-11-02T05:52:10.302Z,96006.28
2022-11-02T05:54:38.136Z,96004.91
2022-11-02T05:57:07.640Z,96004.63
2022-11-02T05:59:35.474Z,96006.88
2022-11-02T06:02:03.423Z,95885.22
2022-11-02T06:04:31.430Z,96006.41
2022-11-02T06:06:59.252Z,96014.03
2022-11-02T06:09:27.661Z,96018.63
2022-11-02T06:11:57.270Z,96013.69
2022-11-02T06:14:26.658Z,96000.22
2022-11-02T06:16:54.483Z,96002.06
2022-11-02T06:19:22.377Z,95867.84
2022-11-02T06:21:50.231Z,96006.94
2022-11-02T06:24:18.116Z,96016.44
2022-11-02T06:26:46.858Z,96014.22
2022-11-02T06:29:15.036Z,96014.09
2022-11-02T06:31:44.267Z,96005.03
2022-11-02T06:34:12.149Z,96016.22
2022-11-02T06:36:39.977Z,96023.19
2022-11-02T06:39:07.842Z,96011.50
2022-11-02T06:41:35.697Z,96014.59
2022-11-02T06:44:03.584Z,96024.66
2022-11-02T06:46:31.374Z,96017.22
2022-11-02T06:49:00.598Z,96019.06
2022-11-02T06:51:28.444Z,96009.34
2022-11-02T06:53:56.451Z,96012.72
2022-11-02T06:56:24.260Z,96007.22
2022-11-02T06:58:52.183Z,96012.06
2022-11-02T07:01:20.125Z,96017.03
2022-11-02T07:03:48.026Z,96010.81
2022-11-02T07:06:17.243Z,96003.88
2022-11-02T07:08:45.150Z,96000.91
2022-11-02T07:11:17.182Z,95960.81
2022-11-02T07:13:45.313Z,95998.25
2022-11-02T07:16:13.349Z,95994.41
2022-11-02T07:18:41.751Z,96009.44
2022-11-02T07:21:11.482Z,96000.31
2022-11-02T07:27:31.262Z,95997.28
2022-11-02T07:29:59.350Z,95999.53
2022-11-02T07:32:27.259Z,95998.38
2022-11-02T07:34:55.113Z,95991.97
2022-11-02T07:37:22.930Z,96014.34
2022-11-02T07:39:50.773Z,95990.28
2022-11-02T07:42:18.696Z,95994.53
2022-11-02T07:44:47.945Z,95986.69
2022-11-02T07:47:15.814Z,95917.81
2022-11-02T07:49:43.731Z,95991.28
2022-11-02T07:52:11.548Z,95980.34
2022-11-02T07:54:44.336Z,96027.56
2022-11-02T07:57:12.561Z,95995.16
2022-11-02T07:59:40.385Z,95977.72
2022-11-02T08:02:13.648Z,95976.13
2022-11-02T08:04:44.081Z,95978.88
2022-11-02T08:07:13.027Z,95964.56
2022-11-02T08:09:40.922Z,95972.59
2022-11-02T08:12:08.855Z,95934.47
2022-11-02T08:14:36.681Z,95963.91
2022-11-02T08:17:04.595Z,95960.81
2022-11-02T08:19:33.907Z,95956.63
2022-11-02T08:22:01.753Z,95958.44
2022-11-02T08:24:29.619Z,95961.44
2022-11-02T08:26:57.446Z,95959.91
2022-11-02T08:29:25.278Z,95947.63
2022-11-02T08:31:53.155Z,95949.53
2022-11-02T08:34:20.974Z,95942.34
2022-11-02T08:36:50.180Z,95936.72
2022-11-02T08:39:19.247Z,95945.59
2022-11-02T08:41:47.220Z,95946.63
2022-11-02T08:44:15.070Z,95891.34
2022-11-02T08:46:42.986Z,95933.69
2022-11-02T08:49:10.898Z,95931.47
2022-11-02T08:51:38.761Z,95931.47
2022-11-02T08:54:07.997Z,95932.25
2022-11-02T08:56:35.904Z,95934.31
2022-11-02T08:59:03.795Z,95928.13
2022-11-02T09:01:31.684Z,95929.34
2022-11-02T09:03:59.575Z,95935.66
2022-11-02T09:06:27.430Z,95925.50
2022-11-02T09:08:57.941Z,95913.81
2022-11-02T09:11:28.299Z,95733.03
2022-11-02T09:13:57.267Z,95916.72
2022-11-02T09:16:25.254Z,95917.56
2022-11-02T09:18:53.094Z,95904.19
2022-11-02T09:21:20.917Z,95911.97
2022-11-02T09:23:49.299Z,95913.53
2022-11-02T09:26:17.180Z,95909.53
2022-11-02T09:28:46.406Z,95901.00
2022-11-02T09:31:14.261Z,95900.34
2022-11-02T09:33:42.140Z,95902.00
2022-11-02T09:36:10.722Z,95887.81
2022-11-02T09:38:38.623Z,95887.06
2022-11-02T09:41:15.418Z,95883.53
2022-11-02T09:43:54.235Z,95843.06
2022-11-02T09:46:26.942Z,95874.47
2022-11-02T09:48:59.114Z,95875.69
2022-11-02T09:51:30.379Z,95869.00
2022-11-02T09:54:11.646Z,95863.44
2022-11-02T09:56:45.654Z,95858.63
2022-11-02T09:59:17.214Z,95849.50
2022-11-02T10:01:59.933Z,95846.66
2022-11-02T10:04:55.163Z,95842.75
2022-11-02T10:07:39.489Z,95837.09
2022-11-02T10:10:15.187Z,95842.81
2022-11-02T10:12:52.459Z,95636.75
2022-11-02T10:15:26.301Z,95835.69
2022-11-02T10:17:58.915Z,95832.88
2022-11-02T10:20:28.606Z,95822.47
2022-11-02T10:23:03.749Z,95822.94
2022-11-02T10:25:31.925Z,95815.56
2022-11-02T10:28:04.794Z,95814.69
2022-11-02T10:30:34.416Z,95814.22
2022-11-02T10:33:02.599Z,95805.25
2022-11-02T10:35:57.759Z,95808.34
2022-11-02T10:38:39.291Z,95800.00
2022-11-02T10:41:21.803Z,95796.81
2022-11-02T10:44:10.029Z,95790.31
2022-11-02T10:46:54.989Z,95793.00
2022-11-02T10:49:46.727Z,95790.19
2022-11-02T10:52:16.825Z,95755.16
2022-11-02T10:54:44.663Z,95781.16
2022-11-02T10:57:13.912Z,95778.97
2022-11-02T10:59:42.123Z,95781.25
2022-11-02T11:02:14.607Z,95666.00
2022-11-02T11:04:43.906Z,95769.53
2022-11-02T11:07:18.047Z,95767.31
2022-11-02T11:09:51.726Z,95745.41
2022-11-02T11:12:23.650Z,95755.34
2022-11-02T11:20:37.341Z,95731.84
2022-11-02T11:23:20.150Z,95732.47
2022-11-02T11:26:02.261Z,95728.56
2022-11-02T11:28:33.450Z,95728.38
2022-11-02T11:31:08.903Z,95718.28
2022-11-02T11:33:46.437Z,95720.31
2022-11-02T11:38:59.409Z,95686.50
2022-11-02T11:41:27.999Z,95692.94
2022-11-02T11:43:56.280Z,95701.00
2022-11-02T11:46:24.313Z,95700.25
2022-11-02T11:48:56.354Z,95696.97
2022-11-02T11:51:32.109Z,95694.22
2022-11-02T11:54:20.426Z,95694.63
2022-11-02T11:56:49.324Z,95698.19
2022-11-02T11:59:29.614Z,95685.19
2022-11-02T12:01:59.694Z,95657.38
2022-11-02T12:04:30.940Z,95664.03
2022-11-02T12:07:23.691Z,95660.13
2022-11-02T12:10:02.785Z,95677.56
2022-11-02T12:12:47.102Z,95666.81
2022-11-02T12:15:25.194Z,95666.47
2022-11-02T12:18:06.214Z,95663.97
2022-11-02T12:20:55.844Z,95652.97
2022-11-02T12:23:40.323Z,95646.72
2022-11-02T12:26:22.281Z,95653.19
2022-11-02T12:29:02.413Z,95651.66
2022-11-02T12:31:36.764Z,95649.13
2022-11-02T12:34:28.504Z,95652.44
2022-11-02T12:37:35.351Z,95648.25
2022-11-02T12:40:16.574Z,95642.47
2022-11-02T12:42:54.972Z,95646.88
2022-11-02T12:45:29.129Z,95636.06
2022-11-02T12:48:00.093Z,95643.94
2022-11-02T12:50:38.641Z,95624.88
2022-11-02T12:53:23.375Z,95641.34
2022-11-02T12:55:55.234Z,95638.31
2022-11-02T12:58:27.323Z,95632.44
2022-11-02T13:01:12.341Z,95630.25
2022-11-02T13:03:48.929Z,95631.88
2022-11-02T13:06:21.471Z,95628.44
2022-11-02T13:08:55.223Z,95611.66
2022-11-02T13:11:28.487Z,95627.22
2022-11-02T13:13:59.186Z,95626.63
2022-11-02T13:16:36.927Z,95633.81
2022-11-02T13:19:06.592Z,95621.97
2022-11-02T13:21:43.696Z,95624.16
2022-11-02T13:24:19.643Z,95609.97
2022-11-02T13:26:57.279Z,95602.94
2022-11-02T13:29:37.186Z,95615.31
2022-11-02T13:32:11.137Z,95611.75
2022-11-02T13:34:42.718Z,95610.34
2022-11-02T13:37:15.911Z,95609.56
2022-11-02T13:39:51.564Z,95572.00
2022-11-02T13:42:38.186Z,95608.91
2022-11-02T13:45:38.708Z,95602.91
2022-11-02T13:48:33.419Z,95601.88
2022-11-02T13:51:06.540Z,95617.31
2022-11-02T13:53:38.702Z,95624.03
2022-11-02T13:56:10.897Z,95626.53
2022-11-02T13:58:50.734Z,95619.06
2022-11-02T14:01:20.849Z,95614.88
2022-11-02T14:03:56.155Z,95622.41
2022-11-02T14:06:28.553Z,95605.13
2022-11-02T14:08:59.514Z,95605.91
2022-11-02T14:11:50.083Z,95595.63
2022-11-02T14:14:23.617Z,95619.63
2022-11-02T14:17:13.634Z,95621.31
2022-11-02T14:19:56.934Z,95589.50
2022-11-02T14:22:24.799Z,95617.34
2022-11-02T14:25:05.930Z,95597.84
2022-11-02T14:27:35.530Z,95624.69
2022-11-02T14:30:03.475Z,95620.38
2022-11-02T14:32:52.115Z,95612.63
2022-11-02T14:35:39.405Z,95612.72
2022-11-02T14:38:39.506Z,95617.97
2022-11-02T14:41:23.975Z,95620.03
2022-11-02T14:44:15.869Z,95622.53
2022-11-02T14:46:56.668Z,95619.44
2022-11-02T14:49:28.863Z,95566.19
2022-11-02T14:52:04.593Z,95609.75
2022-11-02T14:54:35.635Z,95612.50
2022-11-02T14:57:07.341Z,95615.31
2022-11-02T14:59:39.702Z,95626.00
2022-11-02T15:02:13.786Z,95620.91
2022-11-02T15:04:50.842Z,95628.03
2022-11-02T15:07:23.685Z,95498.44
2022-11-02T15:09:54.221Z,95627.72
2022-11-02T15:12:28.720Z,95632.84
2022-11-02T15:15:00.555Z,95626.63
2022-11-02T15:17:54.488Z,95629.81
2022-11-02T15:20:33.633Z,95631.03
2022-11-02T15:23:29.491Z,95635.00
2022-11-02T15:25:59.865Z,95627.19
2022-11-02T15:28:30.725Z,95626.00
2022-11-02T15:31:05.302Z,95636.63
2022-11-02T15:33:37.958Z,95635.44
2022-11-02T15:36:09.760Z,95646.06
2022-11-02T15:38:40.331Z,95647.22
2022-11-02T15:41:20.646Z,95647.22
2022-11-02T15:44:00.544Z,95648.38
2022-11-02T15:46:43.166Z,95640.53
2022-11-02T15:49:26.087Z,95657.00
2022-11-02T15:52:04.598Z,95663.25
2022-11-02T15:54:50.802Z,95670.28
2022-11-02T15:57:30.243Z,95670.66
2022-11-02T16:00:13.267Z,95676.50
2022-11-02T16:02:44.801Z,95681.59
2022-11-02T16:05:23.512Z,95687.06
2022-11-02T16:10:41.554Z,95683.50
2022-11-02T16:13:17.070Z,95688.56
2022-11-02T16:15:46.308Z,95691.69
2022-11-02T16:18:26.698Z,95688.09
2022-11-02T16:20:57.019Z,95686.50
2022-11-02T16:23:28.038Z,95695.06
2022-11-02T16:25:58.376Z,95698.09
2022-11-02T16:28:28.411Z,95705.88
2022-11-02T16:31:12.501Z,95702.75
2022-11-02T16:33:47.594Z,95699.19
2022-11-02T16:36:18.233Z,95705.81
2022-11-02T16:38:54.077Z,95704.59
2022-11-02T16:41:22.142Z,95692.00
2022-11-02T16:43:51.885Z,95710.78
2022-11-02T16:46:30.797Z,95708.38
2022-11-02T16:49:13.378Z,95714.56
2022-11-02T16:51:41.769Z,95710.94
2022-11-02T16:54:30.649Z,95717.91
2022-11-02T16:57:03.279Z,95722.50
2022-11-02T16:59:36.068Z,95728.31
2022-11-02T17:02:06.081Z,95724.31
2022-11-02T17:04:42.464Z,95723.09
2022-11-02T17:07:14.675Z,95723.03
2022-11-02T17:09:43.099Z,95725.69
2022-11-02T17:12:16.253Z,95726.75
2022-11-02T17:14:46.656Z,95667.75
2022-11-02T17:17:36.418Z,95731.34
2022-11-02T17:20:18.139Z,95675.75
2022-11-02T17:22:55.285Z,95732.88
2022-11-02T17:25:25.524Z,95728.53
2022-11-02T17:27:55.362Z,95748.38
2022-11-02T17:30:49.191Z,95729.91
2022-11-02T17:33:24.802Z,95735.34
2022-11-02T17:35:55.905Z,95734.88
2022-11-02T17:38:26.890Z,95736.41
2022-11-02T17:40:55.501Z,95721.31
2022-11-02T17:43:23.737Z,95721.13
2022-11-02T17:45:58.164Z,95740.75
2022-11-02T17:48:28.526Z,95711.31
2022-11-02T17:50:59.871Z,95734.53
2022-11-02T17:53:28.222Z,95730.69
2022-11-02T17:55:56.216Z,95732.16
2022-11-02T17:58:24.086Z,95741.88
2022-11-02T18:00:54.094Z,95736.28
2022-11-02T18:03:25.567Z,95744.38
2022-11-02T18:06:00.207Z,95734.97
2022-11-02T18:08:28.506Z,95738.06
2022-11-02T18:10:56.386Z,95700.59
2022-11-02T18:13:25.774Z,95748.88
2022-11-02T18:15:53.629Z,95741.84
2022-11-02T18:18:21.508Z,95736.28
2022-11-02T18:20:49.583Z,95741.38
2022-11-02T18:23:19.902Z,95740.25
2022-11-02T18:25:47.935Z,95736.38
2022-11-02T18:28:15.782Z,95734.50
2022-11-02T18:30:45.093Z,95725.38
2022-11-02T18:33:13.989Z,95739.44
2022-11-02T18:35:42.242Z,95741.31
2022-11-02T18:38:10.152Z,95746.22
2022-11-02T18:40:39.389Z,95749.34
2022-11-02T18:43:07.795Z,95743.38
2022-11-02T18:45:35.915Z,95749.44
2022-11-02T18:48:04.280Z,95734.66
2022-11-02T18:50:32.550Z,95715.06
2022-11-02T18:53:00.474Z,95747.41
2022-11-02T18:55:28.347Z,95738.00
2022-11-02T18:57:57.549Z,95754.44
2022-11-02T19:00:25.397Z,95753.22
2022-11-02T19:02:53.278Z,95752.78
2022-11-02T19:05:38.382Z,95757.06
2022-11-02T19:08:23.839Z,95755.84
2022-11-02T19:10:52.330Z,95762.22
2022-11-02T19:13:21.535Z,95765.31
2022-11-02T19:15:49.487Z,95769.94
2022-11-02T19:18:17.346Z,95769.16
2022-11-02T19:20:45.274Z,95767.34
2022-11-02T19:23:13.105Z,95759.66
2022-11-02T19:25:40.951Z,95775.72
2022-11-02T19:28:09.001Z,95774.88
2022-11-02T19:30:39.771Z,95774.16
2022-11-02T19:33:08.484Z,95770.22
2022-11-02T19:35:36.457Z,95772.94
2022-11-02T19:38:04.302Z,95769.00
2022-11-02T19:40:32.142Z,95775.59
2022-11-02T19:42:59.959Z,95779.84
2022-11-02T19:45:27.978Z,95781.72
2022-11-02T19:47:57.442Z,95778.63
2022-11-02T19:50:25.416Z,95769.22
2022-11-02T19:52:53.498Z,95773.97
2022-11-02T19:55:25.154Z,95786.66
2022-11-02T19:57:53.761Z,95787.75
2022-11-02T20:00:21.805Z,95779.88
2022-11-02T20:02:50.496Z,95789.94
2022-11-02T20:05:19.798Z,95784.44
2022-11-02T20:07:47.711Z,95787.41
2022-11-02T20:10:15.742Z,95787.41
2022-11-02T20:12:43.640Z,95790.72
2022-11-02T20:15:12.227Z,95788.47
2022-11-02T20:17:58.226Z,95791.44
2022-11-02T20:20:29.258Z,95794.22
2022-11-02T20:22:57.086Z,95792.22
2022-11-02T20:25:25.718Z,95786.97
2022-11-02T20:27:54.059Z,95798.66
2022-11-02T20:30:22.407Z,95794.28
2022-11-02T20:32:50.587Z,95788.84
2022-11-02T20:35:22.826Z,95798.63
2022-11-02T20:37:52.079Z,95793.88
2022-11-02T20:40:19.986Z,95793.59
2022-11-02T20:42:50.335Z,95788.13
2022-11-02T20:45:18.934Z,95786.84
2022-11-02T20:47:46.798Z,95784.91
2022-11-02T20:50:17.535Z,95793.88
2022-11-02T20:52:46.777Z,95792.56
2022-11-02T20:55:16.404Z,95790.34
2022-11-02T20:57:44.212Z,95788.81
2022-11-02T21:00:14.190Z,95782.66
2022-11-02T21:02:42.020Z,95791.97
2022-11-02T21:05:10.566Z,95794.69
2022-11-02T21:07:38.458Z,95779.50
2022-11-02T21:10:07.551Z,95791.84
2022-11-02T21:12:54.507Z,95787.81
2022-11-02T21:15:22.351Z,95793.22
2022-11-02T21:17:50.202Z,95783.09
2022-11-02T21:20:34.984Z,95790.13
2022-11-02T21:23:03.324Z,95787.41
2022-11-02T21:25:31.949Z,95780.78
2022-11-02T21:28:01.419Z,95783.94
2022-11-02T21:30:30.942Z,95764.97
2022-11-02T21:32:59.038Z,95734.16
2022-11-02T21:35:27.003Z,95761.81
2022-11-02T21:37:57.497Z,95790.72
2022-11-02T21:40:25.622Z,95750.16
2022-11-02T21:42:53.482Z,95789.75
2022-11-02T21:45:25.994Z,95788.25
2022-11-02T21:47:54.200Z,95788.25
2022-11-02T21:50:22.040Z,95793.22
2022-11-02T21:52:49.888Z,95791.19
2022-11-02T21:55:18.264Z,95794.72
2022-11-02T21:57:46.128Z,95786.06
2022-11-02T22:00:15.014Z,95795.69
2022-11-02T22:02:43.353Z,95800.28
2022-11-02T22:05:31.233Z,95800.94
2022-11-02T22:08:16.685Z,95803.69
2022-11-02T22:10:44.634Z,95799.66
2022-11-02T22:13:29.795Z,95805.66
2022-11-02T22:15:57.670Z,95771.97
2022-11-02T22:18:26.870Z,95801.56
2022-11-02T22:20:55.342Z,95780.66
2022-11-02T22:23:23.159Z,95801.63
2022-11-02T22:25:58.315Z,95810.28
2022-11-02T22:28:29.540Z,95724.69
2022-11-02T22:30:57.593Z,95820.00
2022-11-02T22:33:27.482Z,95799.38
2022-11-02T22:35:55.321Z,95805.50
2022-11-02T22:38:40.435Z,95806.66
2022-11-02T22:41:08.291Z,95808.94
2022-11-02T22:43:36.117Z,95802.72
2022-11-02T22:46:05.693Z,95798.63
2022-11-02T22:48:36.430Z,95785.94
2022-11-02T22:51:06.077Z,95808.22
2022-11-02T22:53:34.548Z,95799.91
2022-11-02T22:56:03.809Z,95799.78
2022-11-02T22:58:32.924Z,95792.78
2022-11-02T23:01:01.019Z,95792.31
2022-11-02T23:03:31.537Z,95797.28
2022-11-02T23:06:01.004Z,95804.91
2022-11-02T23:08:29.923Z,95805.63
2022-11-02T23:11:17.348Z,95790.28
2022-11-02T23:13:48.467Z,95794.59
2022-11-02T23:16:22.909Z,95804.78
2022-11-02T23:19:13.778Z,95810.00
2022-11-02T23:21:45.227Z,95793.22
2022-11-02T23:24:30.654Z,95808.72
2022-11-02T23:26:59.034Z,95807.78
2022-11-02T23:29:44.546Z,95803.47
2022-11-02T23:32:29.541Z,95813.66
2022-11-02T23:35:16.265Z,95804.69
2022-11-02T23:37:47.047Z,95809.44
2022-11-02T23:40:16.617Z,95811.44
2022-11-02T23:42:44.449Z,95810.56
2022-11-02T23:45:12.866Z,95817.19
2022-11-02T23:47:57.460Z,95825.78
2022-11-02T23:50:44.074Z,95823.06
2022-11-02T23:53:32.740Z,95823.47
2022-11-02T23:56:18.786Z,95827.78
2022-11-02T23:58:46.941Z,95812.34
